Beaverdale, PA (15921)

8:05 AM EDT on July 04, 2015 (GMT -0400)
Portage Boro | | Change Station
CLOSE
Current Station
Personal Weather Station
Location: Portage, PA
Elevation: 1690 ft
Nearby Weather Stations

Elev 1690 ft 40.39 °N, 78.67 °W | Updated 40 seconds ago

Rain
Rain
64.0 °F
Feels Like 64.0 °F
N
0.0
Wind Variable Wind from West
Gusts 0.0 mph

Today
High -- | Low -- °F
--% Chance of Precip.
Yesterday
High -- | Low -- °F
Precip. -- in
5:50 AM 8:48 PM
Waning Gibbous, 92% visible
Pressure 29.89 in
Visibility 4.0 miles
Clouds Scattered Clouds 500 ft
Mostly Cloudy 1000 ft
Overcast 1500 ft
Dew Point 63 °F
Humidity 97%
Rainfall 1.44 in
Snow Depth Not available.
UV 0 out of 12
Pollen .50 out of 12
Air Quality Not available.
Flu Activity Not available.
METAR KJST 041154Z AUTO 21003KT 4SM -RA BR SCT005 BKN010 OVC015 17/16 A2992 RMK AO2 SLP122 P0009 60109 70163 T01720161 10172 20167 51007

More Conditions Fewer Conditions

Pressure 29.89 in
Visibility 4.0 miles
Clouds Scattered Clouds 500 ft
Mostly Cloudy 1000 ft
Overcast 1500 ft
Dew Point 63 °F
Humidity 97%
Rainfall 1.44 in
Snow Depth Not available.
UV 0 out of 12
Pollen .50 out of 12
Air Quality Not available.
Flu Activity Not available.
METAR KJST 041154Z AUTO 21003KT 4SM -RA BR SCT005 BKN010 OVC015 17/16 A2992 RMK AO2 SLP122 P0009 60109 70163 T01720161 10172 20167 51007

More Conditions Fewer Conditions

10-Day Weather Forecast

×

Almanac

Astronomy

Jul. 04, 2015 Rise Set
Actual Time
Civil Twilight
Nautical Twilight
Astronomical Twilight
Moon
Length of Visible Light
Length of Day
Tomorrow will be .
, % of the Moon is Illuminated

Today's Extremes

State Highs State Lows

Community

WunderPhotos

Upload Photos

1,834,941 photos uploaded!

WunderBlogs® & News

Nearby

Air Quality

  Air Quality AQ Index Pollutant
Not available.

Snow Depth

Station Depth Elevation

Earthquake Activity

City Distance Mag. Time & Date
Minimum magnitude displayed is 2.5.

Coastal Water Temperatures

Place Temperature

Stations

Nearby Weather Stations

Station Location Temp. Windchill Dew Point Humidity Wind Precip. Elev Updated Type